Time;durP1;ratioP1;P1;durP2;ratioP2;P2;SDS_P1;SDS_P2;PMS_P1;PMS_P2;Temp;Humidity;BMP_temperature;BMP_pressure;BME280_temperature;BME280_humidity;BME280_pressure;Samples;Min_cycle;Max_cycle;Signal;HPM_P1;HPM_P2
2021/03/19 00:00:10;;;;;;;7.72;3.92;;;1.50;96.50;;;;;;5026114;28;20060;-75
2021/03/19 00:02:37;;;;;;;10.35;4.03;;;1.60;96.40;;;;;;5016857;28;20144;-75
2021/03/19 00:05:07;;;;;;;10.55;4.65;;;1.50;96.50;;;;;;5019199;28;20473;-75
2021/03/19 00:07:47;;;;;;;8.45;3.65;;;1.50;96.40;;;;;;5029235;28;20212;-75
2021/03/19 00:10:26;;;;;;;11.70;4.07;;;1.40;96.40;;;;;;5024463;28;20081;-75
2021/03/19 00:12:54;;;;;;;14.68;4.30;;;1.40;96.40;;;;;;5019672;28;20056;-76
2021/03/19 00:15:23;;;;;;;11.15;4.40;;;1.40;96.40;;;;;;5022508;28;20125;-75
2021/03/19 00:17:49;;;;;;;13.85;3.88;;;1.40;96.60;;;;;;5020008;28;20041;-75
2021/03/19 00:20:16;;;;;;;12.43;4.35;;;1.40;96.50;;;;;;5025901;28;20039;-76
2021/03/19 00:22:42;;;;;;;15.20;4.50;;;1.40;96.50;;;;;;5021060;28;20409;-75
2021/03/19 00:25:10;;;;;;;15.38;4.35;;;1.40;96.50;;;;;;5026160;28;20045;-75
2021/03/19 00:27:36;;;;;;;11.68;4.40;;;1.30;96.40;;;;;;5027061;28;20038;-75
2021/03/19 00:30:04;;;;;;;10.68;4.35;;;1.30;96.50;;;;;;5010517;28;20042;-76
2021/03/19 00:32:30;;;;;;;11.10;4.55;;;1.30;96.50;;;;;;5021165;28;20046;-75
2021/03/19 00:34:56;;;;;;;10.45;4.18;;;1.30;96.50;;;;;;5018259;28;20115;-75
2021/03/19 00:37:22;;;;;;;8.90;3.90;;;1.30;96.50;;;;;;5017341;28;20238;-75
2021/03/19 00:39:48;;;;;;;9.95;4.22;;;1.20;96.40;;;;;;5017433;28;20052;-75
2021/03/19 00:42:13;;;;;;;9.25;4.20;;;1.20;96.40;;;;;;5018264;28;20052;-75
2021/03/19 00:44:41;;;;;;;14.43;4.18;;;1.10;96.40;;;;;;5020216;28;20374;-75
2021/03/19 00:47:07;;;;;;;15.35;4.75;;;1.10;96.40;;;;;;5025704;28;20468;-75
2021/03/19 00:49:34;;;;;;;13.20;5.30;;;1.10;96.50;;;;;;5024427;28;20042;-76
2021/03/19 00:52:00;;;;;;;14.38;4.55;;;1.10;96.70;;;;;;5039908;28;20720;-75
2021/03/19 00:54:26;;;;;;;14.48;4.30;;;1.10;96.70;;;;;;5012122;28;20046;-75
2021/03/19 00:56:52;;;;;;;12.18;4.35;;;1.10;96.70;;;;;;5020031;28;20128;-75
2021/03/19 00:59:17;;;;;;;16.80;4.30;;;1.10;96.80;;;;;;5015872;28;20116;-75
2021/03/19 01:01:43;;;;;;;11.38;4.13;;;1.10;96.80;;;;;;5022827;28;20465;-75
2021/03/19 01:04:10;;;;;;;13.57;5.55;;;1.00;96.80;;;;;;5042435;28;20037;-75
2021/03/19 01:06:36;;;;;;;16.77;4.60;;;1.10;96.80;;;;;;5014656;28;20109;-75
2021/03/19 01:09:02;;;;;;;17.02;4.82;;;1.10;96.90;;;;;;5018217;28;20129;-75
2021/03/19 01:11:28;;;;;;;15.55;5.05;;;1.00;96.90;;;;;;5023193;28;20037;-75
2021/03/19 01:13:54;;;;;;;12.75;4.60;;;1.00;96.90;;;;;;5024602;28;20095;-75
2021/03/19 01:16:21;;;;;;;16.98;4.93;;;1.00;96.90;;;;;;5017010;28;20053;-75
2021/03/19 01:18:47;;;;;;;15.55;4.85;;;1.00;96.90;;;;;;5017206;28;20057;-76
2021/03/19 01:21:15;;;;;;;14.57;4.90;;;1.00;96.80;;;;;;5020959;28;20424;-76
2021/03/19 01:23:43;;;;;;;12.98;5.75;;;1.00;96.90;;;;;;5017936;28;20063;-75
2021/03/19 01:26:14;;;;;;;10.85;4.85;;;0.90;96.90;;;;;;5021025;28;20045;-75
2021/03/19 01:28:40;;;;;;;17.85;5.63;;;0.90;97.00;;;;;;5015655;28;20048;-76
2021/03/19 01:31:06;;;;;;;14.95;5.10;;;0.90;96.90;;;;;;5016933;28;20042;-76
2021/03/19 01:33:33;;;;;;;19.08;6.38;;;0.90;97.10;;;;;;5026596;28;20065;-75
2021/03/19 01:36:04;;;;;;;10.60;4.65;;;0.90;97.30;;;;;;5020016;28;20041;-75
2021/03/19 01:38:30;;;;;;;15.25;5.00;;;0.80;96.90;;;;;;5026762;28;20053;-75
2021/03/19 01:40:56;;;;;;;17.33;6.10;;;0.80;97.00;;;;;;5025559;28;20041;-75
2021/03/19 01:43:23;;;;;;;14.65;5.13;;;0.80;97.10;;;;;;5022495;28;20045;-75
2021/03/19 01:46:32;;;;;;;16.80;5.20;;;0.80;97.10;;;;;;5027735;28;20648;-75
2021/03/19 01:49:35;;;;;;;11.70;4.88;;;0.80;97.10;;;;;;5019736;28;20101;-76
2021/03/19 01:52:39;;;;;;;19.83;6.55;;;0.80;97.10;;;;;;5029146;28;20046;-75
2021/03/19 01:55:42;;;;;;;13.63;5.53;;;0.80;97.10;;;;;;5016903;28;20042;-75
2021/03/19 01:58:45;;;;;;;14.10;5.25;;;0.70;97.10;;;;;;5024209;28;20378;-75
2021/03/19 02:01:49;;;;;;;16.70;5.75;;;0.70;97.10;;;;;;5034995;28;20563;-76
2021/03/19 02:04:52;;;;;;;19.13;5.75;;;0.60;97.30;;;;;;5015512;28;20038;-76
2021/03/19 02:07:55;;;;;;;17.13;6.00;;;0.60;97.50;;;;;;5033505;28;20054;-76
2021/03/19 02:10:59;;;;;;;18.20;5.30;;;0.60;97.30;;;;;;5026530;28;20034;-74
2021/03/19 02:14:02;;;;;;;19.52;5.55;;;0.60;97.40;;;;;;5019687;28;20842;-75
2021/03/19 02:17:05;;;;;;;19.92;5.30;;;0.60;97.40;;;;;;5031098;28;20030;-75
2021/03/19 02:20:09;;;;;;;16.42;5.88;;;0.60;97.30;;;;;;5032852;28;20041;-76
2021/03/19 02:23:12;;;;;;;16.95;5.15;;;0.50;97.20;;;;;;5015875;28;20385;-76
2021/03/19 02:26:18;;;;;;;13.30;5.40;;;0.50;97.30;;;;;;5026796;28;20061;-76
2021/03/19 02:29:22;;;;;;;20.95;5.95;;;0.50;97.30;;;;;;5018937;28;20558;-76
2021/03/19 02:32:11;;;;;;;13.93;5.53;;;0.50;97.30;;;;;;5028603;28;20049;-76
2021/03/19 02:34:45;;;;;;;17.90;6.10;;;0.40;97.40;;;;;;5021996;28;20079;-75
2021/03/19 02:37:18;;;;;;;16.52;5.93;;;0.40;97.40;;;;;;5018096;28;20042;-76
2021/03/19 02:39:44;;;;;;;16.73;5.40;;;0.50;97.50;;;;;;5022205;28;20458;-76
2021/03/19 02:42:12;;;;;;;19.63;7.07;;;0.40;97.50;;;;;;5023372;28;20116;-76
2021/03/19 02:44:39;;;;;;;19.20;6.90;;;0.40;97.60;;;;;;5018036;28;20390;-76
2021/03/19 02:47:06;;;;;;;23.30;7.90;;;0.40;97.50;;;;;;5023112;28;20127;-76
2021/03/19 02:49:32;;;;;;;22.52;7.07;;;0.40;97.60;;;;;;5018069;28;20068;-76
2021/03/19 02:51:58;;;;;;;20.58;7.95;;;0.40;97.60;;;;;;5022652;28;20037;-76
2021/03/19 02:54:24;;;;;;;22.08;6.25;;;0.40;97.60;;;;;;5029083;28;20145;-76
2021/03/19 02:56:50;;;;;;;17.55;5.90;;;0.50;97.60;;;;;;5018688;28;20092;-76
2021/03/19 02:59:17;;;;;;;16.73;6.97;;;0.40;97.60;;;;;;5010908;28;20060;-76
2021/03/19 03:01:43;;;;;;;14.55;6.18;;;0.40;97.60;;;;;;5025853;28;20034;-76
2021/03/19 03:04:10;;;;;;;18.05;7.25;;;0.40;97.60;;;;;;5021461;28;20172;-75
2021/03/19 03:06:41;;;;;;;20.65;5.45;;;0.30;97.50;;;;;;5023112;28;20025;-76
2021/03/19 03:09:09;;;;;;;16.70;6.07;;;0.30;97.60;;;;;;5029042;28;20505;-76
2021/03/19 03:11:36;;;;;;;19.15;7.78;;;0.30;97.60;;;;;;5022699;28;20029;-76
2021/03/19 03:14:05;;;;;;;23.42;7.30;;;0.30;97.60;;;;;;5020627;28;20457;-76
2021/03/19 03:16:30;;;;;;;24.58;8.45;;;0.30;97.60;;;;;;5022514;28;20185;-76
2021/03/19 03:18:56;;;;;;;15.75;8.52;;;0.30;97.80;;;;;;5015948;28;20120;-76
2021/03/19 03:21:22;;;;;;;17.13;6.63;;;0.30;97.90;;;;;;5018550;28;20054;-75
2021/03/19 03:23:49;;;;;;;26.00;8.30;;;0.30;97.70;;;;;;5031266;28;20504;-76
2021/03/19 03:26:15;;;;;;;21.35;8.48;;;0.30;97.70;;;;;;5019015;28;20045;-75
2021/03/19 03:28:41;;;;;;;16.58;6.63;;;0.30;97.70;;;;;;5024930;28;20100;-75
2021/03/19 03:31:08;;;;;;;14.82;7.47;;;0.20;97.80;;;;;;5025709;28;20054;-75
2021/03/19 03:33:34;;;;;;;23.00;9.98;;;0.20;97.80;;;;;;5027925;28;20053;-76
2021/03/19 03:36:02;;;;;;;20.92;8.82;;;0.20;97.80;;;;;;5031664;28;20399;-76
2021/03/19 03:38:28;;;;;;;23.17;7.95;;;0.30;97.90;;;;;;5039122;28;21382;-75
2021/03/19 03:41:05;;;;;;;19.65;8.57;;;0.20;97.90;;;;;;5035130;28;20366;-75
2021/03/19 03:43:32;;;;;;;21.75;8.57;;;0.20;97.90;;;;;;5022535;28;20086;-75
2021/03/19 03:45:58;;;;;;;18.85;7.82;;;0.20;97.90;;;;;;5016953;28;20073;-75
2021/03/19 03:48:27;;;;;;;23.48;8.20;;;0.20;98.00;;;;;;5029134;28;20114;-75
2021/03/19 03:50:55;;;;;;;19.98;7.45;;;0.30;98.10;;;;;;5016147;28;20054;-75
2021/03/19 03:53:22;;;;;;;19.92;8.68;;;0.30;98.20;;;;;;5014830;28;20058;-75
2021/03/19 03:55:48;;;;;;;15.73;7.97;;;0.30;98.10;;;;;;5028241;28;20057;-75
2021/03/19 03:58:16;;;;;;;23.45;7.70;;;0.30;98.10;;;;;;5026705;28;20409;-75
2021/03/19 04:00:43;;;;;;;18.75;8.45;;;0.30;98.10;;;;;;5025178;28;20478;-75
2021/03/19 04:03:11;;;;;;;24.35;9.40;;;0.30;98.20;;;;;;5027784;28;20068;-75
2021/03/19 04:05:40;;;;;;;23.52;8.75;;;0.30;98.30;;;;;;5025317;28;20057;-75
2021/03/19 04:08:09;;;;;;;14.95;7.60;;;0.30;98.40;;;;;;5013171;28;20512;-75
2021/03/19 04:10:36;;;;;;;20.70;8.63;;;0.40;98.40;;;;;;5026692;28;20103;-75
2021/03/19 04:13:03;;;;;;;21.55;9.48;;;0.30;98.40;;;;;;5040212;28;20575;-75
2021/03/19 04:15:30;;;;;;;30.50;9.30;;;0.40;98.50;;;;;;5026921;28;20049;-75
2021/03/19 04:17:59;;;;;;;29.05;9.65;;;0.40;98.50;;;;;;5019020;28;20462;-75
2021/03/19 04:20:26;;;;;;;22.00;8.25;;;0.50;98.50;;;;;;5035266;28;20058;-75
2021/03/19 04:22:54;;;;;;;25.38;9.60;;;0.40;98.50;;;;;;5025558;28;20060;-76
2021/03/19 04:25:21;;;;;;;19.70;8.82;;;0.40;98.40;;;;;;5029050;28;20046;-76
2021/03/19 04:27:59;;;;;;;29.50;10.02;;;0.40;98.50;;;;;;5040517;28;20062;-76
2021/03/19 04:30:32;;;;;;;23.42;8.98;;;0.40;98.60;;;;;;5027775;28;20103;-76
2021/03/19 04:32:59;;;;;;;28.50;9.00;;;0.40;98.50;;;;;;5022410;28;20053;-76
2021/03/19 04:35:27;;;;;;;23.00;10.90;;;0.40;98.50;;;;;;5027415;28;20054;-77
2021/03/19 04:37:58;;;;;;;22.17;9.57;;;0.40;98.50;;;;;;5019952;28;20108;-75
2021/03/19 04:40:27;;;;;;;24.98;9.45;;;0.40;98.60;;;;;;5016412;28;20050;-75
2021/03/19 04:42:55;;;;;;;24.95;8.90;;;0.30;98.60;;;;;;5019137;28;20058;-75
2021/03/19 04:45:23;;;;;;;28.65;9.68;;;0.30;98.50;;;;;;5015803;28;20062;-75
2021/03/19 04:47:53;;;;;;;25.42;8.75;;;0.30;98.60;;;;;;5028636;28;20168;-75
2021/03/19 04:50:21;;;;;;;22.52;7.95;;;0.30;98.50;;;;;;5030647;28;20049;-77
2021/03/19 04:52:47;;;;;;;18.67;9.23;;;0.30;98.50;;;;;;5030745;28;20460;-77
2021/03/19 04:55:14;;;;;;;21.73;8.25;;;0.20;98.50;;;;;;5028193;28;20794;-77
2021/03/19 04:57:41;;;;;;;28.00;11.68;;;0.20;98.50;;;;;;5029165;28;20540;-76
2021/03/19 05:00:10;;;;;;;22.27;12.00;;;0.20;98.50;;;;;;5043693;28;20175;-76
2021/03/19 05:02:42;;;;;;;30.10;11.10;;;0.20;98.60;;;;;;5030455;28;20045;-76
2021/03/19 05:05:21;;;;;;;28.58;13.40;;;0.10;98.60;;;;;;5029064;28;20053;-76
2021/03/19 05:07:48;;;;;;;33.78;12.30;;;0.20;98.60;;;;;;5028119;28;20107;-76
2021/03/19 05:10:16;;;;;;;25.50;11.20;;;0.20;98.70;;;;;;5018842;28;20053;-77
2021/03/19 05:12:43;;;;;;;33.42;11.73;;;0.20;98.70;;;;;;5030418;28;20899;-77
2021/03/19 05:15:10;;;;;;;24.50;11.02;;;0.10;98.60;;;;;;5022580;28;20096;-76
2021/03/19 05:17:37;;;;;;;20.42;10.05;;;0.20;98.60;;;;;;5026230;28;20457;-76
2021/03/19 05:20:06;;;;;;;28.17;12.63;;;0.10;98.60;;;;;;5026975;28;20100;-76
2021/03/19 05:22:32;;;;;;;27.92;10.82;;;0.10;98.70;;;;;;5030114;28;20111;-76
2021/03/19 05:24:59;;;;;;;18.25;9.55;;;0.10;98.70;;;;;;5023937;28;20058;-76
2021/03/19 05:27:26;;;;;;;28.58;11.13;;;0.10;98.70;;;;;;5022764;28;20049;-76
2021/03/19 05:29:55;;;;;;;24.35;10.85;;;0.10;98.70;;;;;;5027549;28;20049;-76
2021/03/19 05:32:23;;;;;;;26.20;10.82;;;0.10;98.60;;;;;;5030956;28;20053;-76
2021/03/19 05:34:49;;;;;;;30.52;11.63;;;0.10;98.60;;;;;;5026978;28;20053;-77
2021/03/19 05:37:16;;;;;;;22.27;11.30;;;0.00;98.50;;;;;;5017181;28;20421;-77
2021/03/19 05:39:43;;;;;;;35.38;13.88;;;-0.10;98.50;;;;;;5021474;28;20045;-77
2021/03/19 05:42:30;;;;;;;25.90;15.70;;;-0.10;98.60;;;;;;5040089;28;20050;-77
2021/03/19 05:45:29;;;;;;;33.95;13.23;;;-0.10;98.60;;;;;;5020532;28;20061;-77
2021/03/19 05:47:57;;;;;;;20.38;9.43;;;-0.10;98.60;;;;;;5014836;28;20104;-76
2021/03/19 05:50:26;;;;;;;15.98;8.60;;;-0.10;98.60;;;;;;5037490;28;20060;-77
2021/03/19 05:52:53;;;;;;;25.60;9.73;;;-0.10;98.60;;;;;;5028895;28;20107;-77
2021/03/19 05:55:23;;;;;;;19.55;11.60;;;-0.10;98.60;;;;;;5029520;28;20540;-77
2021/03/19 05:57:58;;;;;;;30.20;12.95;;;-0.20;98.60;;;;;;5012791;28;20105;-77
2021/03/19 06:00:27;;;;;;;27.13;12.40;;;-0.10;98.60;;;;;;5013699;28;20368;-77
2021/03/19 06:02:55;;;;;;;27.90;11.35;;;-0.20;99.00;;;;;;5011935;28;20141;-76
2021/03/19 06:05:29;;;;;;;19.73;9.50;;;-0.10;98.70;;;;;;5017658;28;20092;-77
2021/03/19 06:08:02;;;;;;;21.90;9.45;;;-0.20;98.70;;;;;;5017472;28;20053;-77
2021/03/19 06:10:41;;;;;;;35.35;12.48;;;-0.10;98.70;;;;;;5021856;28;20061;-76
2021/03/19 06:13:13;;;;;;;27.30;12.35;;;-0.20;98.70;;;;;;5023695;28;20051;-76
2021/03/19 06:15:46;;;;;;;38.00;16.05;;;-0.10;98.80;;;;;;5021464;28;20053;-76
2021/03/19 06:18:29;;;;;;;28.02;14.10;;;0.00;98.90;;;;;;5015608;28;20569;-76
2021/03/19 06:21:04;;;;;;;25.27;13.13;;;0.20;99.20;;;;;;5017165;28;20100;-77
2021/03/19 06:23:32;;;;;;;25.52;12.57;;;0.40;99.40;;;;;;5023264;28;20448;-76
2021/03/19 06:26:26;;;;;;;26.80;12.98;;;0.60;99.50;;;;;;5007909;28;20061;-76
2021/03/19 06:29:32;;;;;;;27.40;13.48;;;0.70;99.40;;;;;;5011534;28;20054;-76
2021/03/19 06:32:21;;;;;;;29.48;12.45;;;0.80;99.30;;;;;;5013054;28;20056;-75
2021/03/19 06:35:05;;;;;;;27.20;13.23;;;0.90;99.30;;;;;;5029886;28;20046;-76
2021/03/19 06:37:52;;;;;;;33.63;13.88;;;1.00;99.30;;;;;;5025041;28;20053;-74
2021/03/19 06:40:39;;;;;;;29.50;13.73;;;1.10;99.40;;;;;;5021641;28;20050;-75
2021/03/19 06:43:28;;;;;;;28.13;12.90;;;1.20;99.40;;;;;;5003283;28;21136;-76
2021/03/19 06:46:52;;;;;;;28.67;13.23;;;1.40;99.40;;;;;;5037699;28;20500;-76
2021/03/19 06:49:55;;;;;;;22.38;10.52;;;1.50;99.40;;;;;;5004423;28;20136;-75
2021/03/19 06:52:41;;;;;;;24.70;11.52;;;1.60;99.30;;;;;;5007626;28;20132;-75
2021/03/19 06:55:39;;;;;;;28.05;12.38;;;1.80;99.30;;;;;;5022785;28;20081;-76
2021/03/19 06:58:45;;;;;;;22.98;10.55;;;1.90;99.20;;;;;;5009510;28;20050;-76
2021/03/19 07:01:38;;;;;;;24.02;9.27;;;2.10;99.20;;;;;;4998207;28;20088;-74
2021/03/19 07:04:59;;;;;;;17.30;8.60;;;2.30;99.30;;;;;;5001017;28;20045;-75
2021/03/19 07:08:01;;;;;;;13.77;7.32;;;2.50;99.10;;;;;;5014531;28;20097;-75
2021/03/19 07:10:59;;;;;;;24.88;10.25;;;2.60;98.80;;;;;;5018137;28;20548;-75
2021/03/19 07:13:56;;;;;;;15.50;7.10;;;2.70;98.70;;;;;;5023226;28;20100;-74
2021/03/19 07:17:00;;;;;;;18.42;8.70;;;2.90;98.70;;;;;;5017654;28;20149;-75
2021/03/19 07:19:52;;;;;;;14.38;6.88;;;3.10;98.50;;;;;;5016709;28;20038;-74
2021/03/19 07:22:47;;;;;;;16.52;7.10;;;3.20;98.40;;;;;;5014120;28;20037;-74
2021/03/19 07:25:56;;;;;;;12.40;6.78;;;3.40;98.20;;;;;;5000817;28;20061;-74
2021/03/19 07:28:45;;;;;;;14.57;5.75;;;3.50;97.80;;;;;;5026847;28;20054;-75
2021/03/19 07:31:24;;;;;;;14.48;6.10;;;3.60;97.40;;;;;;5018823;28;20079;-74
2021/03/19 07:34:28;;;;;;;16.00;6.60;;;3.70;97.30;;;;;;5033851;28;20115;-75
2021/03/19 07:37:40;;;;;;;14.75;5.70;;;3.90;97.40;;;;;;4997170;28;20422;-75
2021/03/19 07:40:58;;;;;;;12.25;7.07;;;4.10;97.10;;;;;;5015519;28;20049;-74
2021/03/19 07:44:07;;;;;;;13.30;5.57;;;4.30;96.80;;;;;;4995082;28;20146;-75
2021/03/19 07:47:17;;;;;;;11.13;5.63;;;4.50;96.30;;;;;;4976347;28;20053;-75
2021/03/19 07:50:18;;;;;;;15.30;5.60;;;4.60;96.00;;;;;;5002349;28;20053;-75
2021/03/19 07:53:29;;;;;;;9.82;5.03;;;4.90;95.60;;;;;;5031958;28;20335;-75
2021/03/19 07:56:36;;;;;;;11.82;5.22;;;4.90;95.30;;;;;;5003981;28;20172;-75
2021/03/19 07:59:39;;;;;;;14.90;5.55;;;5.00;94.80;;;;;;5028630;28;20095;-74
2021/03/19 08:02:46;;;;;;;11.23;5.22;;;5.20;94.90;;;;;;5013598;28;20084;-74
2021/03/19 08:05:50;;;;;;;11.77;3.85;;;5.50;94.50;;;;;;4999826;28;20050;-74
2021/03/19 08:09:12;;;;;;;7.97;4.18;;;5.70;94.20;;;;;;5011336;28;20112;-75
2021/03/19 08:12:10;;;;;;;6.75;4.18;;;5.90;91.70;;;;;;5023938;28;20047;-74
2021/03/19 08:15:24;;;;;;;8.25;3.95;;;6.00;93.00;;;;;;5016965;28;20045;-75
2021/03/19 08:18:34;;;;;;;9.38;4.07;;;6.10;91.90;;;;;;5023708;28;20071;-74
2021/03/19 08:21:57;;;;;;;8.88;4.13;;;6.20;91.30;;;;;;5026622;28;20455;-78
2021/03/19 08:24:42;;;;;;;7.90;3.75;;;6.50;90.20;;;;;;5028214;28;20065;-78
2021/03/19 08:27:47;;;;;;;7.28;4.03;;;6.60;90.20;;;;;;5008403;28;20045;-77
2021/03/19 08:30:45;;;;;;;7.47;3.50;;;6.80;89.50;;;;;;5014561;28;20057;-77
2021/03/19 08:33:47;;;;;;;7.40;2.97;;;6.70;86.00;;;;;;5019491;28;20049;-77
2021/03/19 08:37:06;;;;;;;;;;;;;;;;;;;;;
2021/03/19 08:39:45;;;;;;;7.78;4.32;;;6.60;84.70;;;;;;5024005;28;20992;-76
2021/03/19 08:42:38;;;;;;;8.00;4.32;;;6.60;88.30;;;;;;5011967;28;20057;-77
2021/03/19 08:45:30;;;;;;;9.85;3.85;;;6.80;87.00;;;;;;5027194;28;20045;-77
2021/03/19 08:48:16;;;;;;;6.93;2.72;;;6.80;86.80;;;;;;5022603;28;20397;-77
2021/03/19 08:51:27;;;;;;;7.88;3.35;;;7.00;84.80;;;;;;5023386;28;20041;-77
2021/03/19 08:54:13;;;;;;;7.40;2.78;;;7.10;81.30;;;;;;4999975;28;20116;-77
2021/03/19 08:57:05;;;;;;;7.85;3.35;;;7.10;82.40;;;;;;5004305;28;20133;-77
2021/03/19 08:59:52;;;;;;;7.43;3.28;;;7.10;83.20;;;;;;5020902;28;20041;-76
2021/03/19 09:02:49;;;;;;;7.88;3.30;;;7.20;83.50;;;;;;5021416;28;20049;-76
2021/03/19 09:06:08;;;;;;;6.35;2.67;;;7.20;77.70;;;;;;5012373;28;20087;-77
2021/03/19 09:09:05;;;;;;;4.75;2.20;;;7.20;76.20;;;;;;5003108;28;20709;-77
2021/03/19 09:11:50;;;;;;;4.63;2.20;;;7.30;76.40;;;;;;5022934;28;20544;-76
2021/03/19 09:14:32;;;;;;;3.90;1.90;;;7.40;78.50;;;;;;5027311;28;20033;-76
2021/03/19 09:17:05;;;;;;;5.38;1.90;;;7.30;76.20;;;;;;5025391;28;20041;-76
2021/03/19 09:20:01;;;;;;;6.78;2.05;;;7.40;77.10;;;;;;5026848;28;20104;-76
2021/03/19 09:23:01;;;;;;;6.35;1.77;;;7.40;74.00;;;;;;5014356;28;20478;-76
2021/03/19 09:26:19;;;;;;;4.80;1.92;;;7.50;74.00;;;;;;5024734;28;20062;-77
2021/03/19 09:29:01;;;;;;;4.82;1.77;;;7.50;70.60;;;;;;5017775;28;20134;-75
2021/03/19 09:31:53;;;;;;;5.18;1.88;;;7.50;72.60;;;;;;5016726;28;20050;-76
2021/03/19 09:34:42;;;;;;;3.88;1.48;;;7.50;72.40;;;;;;5020941;28;20406;-77
2021/03/19 09:37:37;;;;;;;5.05;1.20;;;7.50;72.80;;;;;;5014587;28;20042;-76
2021/03/19 09:40:48;;;;;;;4.38;1.20;;;7.50;71.40;;;;;;5005108;28;20088;-76
2021/03/19 09:43:47;;;;;;;5.03;1.60;;;7.40;70.20;;;;;;5020802;28;20481;-76
2021/03/19 09:46:18;;;;;;;2.80;1.17;;;7.50;67.30;;;;;;5024985;28;20110;-78
2021/03/19 09:49:05;;;;;;;2.70;1.00;;;7.60;70.50;;;;;;5030093;28;20033;-77
2021/03/19 09:51:45;;;;;;;2.38;0.90;;;7.70;67.40;;;;;;5014571;28;20048;-77
2021/03/19 09:54:34;;;;;;;4.03;1.30;;;7.70;68.10;;;;;;5018994;28;20045;-78
2021/03/19 09:57:23;;;;;;;1.95;1.00;;;7.80;67.10;;;;;;5043164;28;20066;-79
2021/03/19 10:00:06;;;;;;;2.88;1.40;;;7.70;64.90;;;;;;4988108;28;20056;-77
2021/03/19 10:02:42;;;;;;;4.28;1.27;;;7.60;66.20;;;;;;5027668;28;20452;-79
2021/03/19 10:05:48;;;;;;;2.63;1.40;;;7.70;66.50;;;;;;4996623;28;20111;-80
2021/03/19 10:08:34;;;;;;;4.53;1.02;;;7.70;68.30;;;;;;5026607;28;20115;-77
2021/03/19 10:11:20;;;;;;;1.80;0.80;;;7.70;67.60;;;;;;5018261;28;20385;-78
2021/03/19 10:14:21;;;;;;;1.88;1.15;;;7.90;68.50;;;;;;5019348;28;20048;-78
2021/03/19 10:17:21;;;;;;;3.55;1.00;;;8.00;66.10;;;;;;5006450;28;20046;-77
2021/03/19 10:20:30;;;;;;;1.50;0.90;;;8.00;65.80;;;;;;5020142;28;20092;-78
2021/03/19 10:27:00;;;;;;;3.38;1.35;;;8.00;66.50;;;;;;4966502;28;20051;-78
2021/03/19 10:29:43;;;;;;;1.85;0.95;;;8.00;66.00;;;;;;5018176;28;20053;-77
2021/03/19 10:32:15;;;;;;;3.63;1.48;;;8.00;66.60;;;;;;5017164;28;20048;-77
2021/03/19 10:35:08;;;;;;;2.88;1.33;;;8.10;67.50;;;;;;5027682;28;20462;-79
2021/03/19 10:38:13;;;;;;;;;;;;;;;;;;;;;
2021/03/19 10:41:17;;;;;;;2.35;0.82;;;8.30;63.20;;;;;;5029597;28;20137;-78
2021/03/19 10:44:30;;;;;;;1.75;0.70;;;8.40;64.10;;;;;;5019123;28;20042;-78
2021/03/19 10:47:17;;;;;;;2.25;0.65;;;8.50;59.90;;;;;;5025333;28;20403;-77
2021/03/19 10:49:54;;;;;;;0.80;0.50;;;8.50;63.80;;;;;;5014403;28;20057;-77
2021/03/19 10:52:33;;;;;;;1.05;0.50;;;8.50;62.60;;;;;;5022877;28;20046;-77
2021/03/19 10:55:25;;;;;;;2.13;0.57;;;8.40;61.80;;;;;;5022375;28;20079;-77
2021/03/19 10:58:33;;;;;;;3.47;2.30;;;8.50;58.00;;;;;;5006267;28;20090;-76
2021/03/19 11:00:59;;;;;;;2.28;0.40;;;8.50;57.70;;;;;;5029547;28;20049;-77
2021/03/19 11:03:54;;;;;;;2.88;0.85;;;8.60;61.40;;;;;;5019691;28;20034;-77
2021/03/19 11:06:38;;;;;;;3.22;0.50;;;8.70;58.00;;;;;;5009082;28;20075;-78
2021/03/19 11:09:14;;;;;;;1.60;0.50;;;8.70;58.20;;;;;;5009720;28;20065;-78
2021/03/19 11:11:44;;;;;;;2.58;0.73;;;8.70;59.80;;;;;;5013325;28;20050;-77
2021/03/19 11:14:12;;;;;;;1.25;0.60;;;8.60;60.70;;;;;;5009825;28;20056;-77
2021/03/19 11:16:45;;;;;;;2.40;0.98;;;8.60;62.10;;;;;;5013423;28;20150;-77
2021/03/19 11:19:19;;;;;;;1.58;0.80;;;8.70;62.40;;;;;;5022149;28;20048;-77
2021/03/19 11:21:53;;;;;;;3.65;0.70;;;8.70;62.10;;;;;;5028396;28;20044;-77
2021/03/19 11:24:26;;;;;;;4.45;0.90;;;8.60;63.40;;;;;;5027761;28;20443;-77
2021/03/19 11:27:02;;;;;;;2.80;1.15;;;8.60;63.40;;;;;;5040392;28;20053;-77
2021/03/19 11:29:49;;;;;;;2.55;0.80;;;8.50;63.40;;;;;;5019295;28;20054;-77
2021/03/19 11:32:15;;;;;;;2.92;1.10;;;8.40;63.40;;;;;;5028404;28;20045;-77
2021/03/19 11:34:47;;;;;;;2.17;0.70;;;8.30;63.80;;;;;;5029599;28;20105;-77
2021/03/19 11:37:21;;;;;;;4.25;0.70;;;8.30;62.70;;;;;;5032832;28;20048;-78
2021/03/19 11:40:08;;;;;;;1.30;0.90;;;8.30;62.80;;;;;;5014169;28;20129;-78
2021/03/19 11:42:48;;;;;;;1.15;0.68;;;8.40;63.00;;;;;;5031919;28;20042;-78
2021/03/19 11:45:20;;;;;;;3.00;0.63;;;8.40;60.40;;;;;;5020939;28;20100;-78
2021/03/19 11:47:58;;;;;;;1.85;0.65;;;8.40;60.00;;;;;;5022615;28;20052;-78
2021/03/19 11:50:25;;;;;;;1.42;0.50;;;8.60;60.90;;;;;;5013141;28;20056;-77
2021/03/19 11:53:17;;;;;;;0.90;0.50;;;8.60;61.70;;;;;;5027357;28;20045;-77
2021/03/19 11:55:46;;;;;;;0.73;0.30;;;8.70;61.30;;;;;;5028845;28;20029;-77
2021/03/19 11:58:33;;;;;;;0.90;0.40;;;8.70;60.00;;;;;;5019044;28;20057;-77
2021/03/19 12:01:00;;;;;;;1.75;0.50;;;8.80;59.30;;;;;;5021437;28;20038;-78
2021/03/19 12:03:37;;;;;;;0.85;0.38;;;8.70;58.50;;;;;;5042486;28;20049;-77
2021/03/19 12:06:04;;;;;;;1.33;0.30;;;8.60;59.10;;;;;;5023198;28;20481;-77
2021/03/19 12:08:32;;;;;;;2.63;0.40;;;8.70;59.40;;;;;;5022814;28;20038;-77
2021/03/19 12:11:00;;;;;;;2.05;0.40;;;8.80;59.40;;;;;;5026037;28;20042;-78
2021/03/19 12:13:27;;;;;;;1.10;0.30;;;9.00;59.00;;;;;;5031409;28;20434;-78
2021/03/19 12:15:52;;;;;;;1.52;0.38;;;9.20;56.80;;;;;;5025344;28;20144;-78
2021/03/19 12:18:38;;;;;;;0.77;0.30;;;9.20;57.30;;;;;;5021236;28;20078;-78
2021/03/19 12:21:27;;;;;;;3.35;0.40;;;9.20;56.90;;;;;;5014775;28;20146;-80
2021/03/19 12:24:18;;;;;;;1.33;0.40;;;9.10;56.10;;;;;;5026263;28;20054;-79
2021/03/19 12:26:48;;;;;;;1.77;0.30;;;9.00;56.10;;;;;;5021027;28;20448;-80
2021/03/19 12:29:14;;;;;;;1.02;0.30;;;8.90;55.90;;;;;;5014170;28;20088;-77
2021/03/19 12:32:04;;;;;;;2.47;0.30;;;8.80;55.50;;;;;;5015195;28;20041;-79
2021/03/19 12:34:33;;;;;;;0.65;0.22;;;8.70;55.00;;;;;;5023498;28;20378;-79
2021/03/19 12:37:07;;;;;;;0.43;0.13;;;8.70;55.80;;;;;;5039785;28;20401;-80
2021/03/19 12:40:20;;;;;;;0.47;0.20;;;8.80;54.30;;;;;;5019120;28;20048;-78
2021/03/19 12:42:49;;;;;;;2.75;0.60;;;9.00;55.60;;;;;;5017904;28;20064;-81
2021/03/19 12:45:37;;;;;;;0.85;0.30;;;9.10;55.90;;;;;;5020370;28;20030;-78
2021/03/19 12:52:08;;;;;;;1.00;0.32;;;9.20;56.30;;;;;;5016900;28;20103;-80
2021/03/19 12:54:44;;;;;;;1.25;0.20;;;9.20;56.10;;;;;;5019136;28;20109;-78
2021/03/19 12:57:41;;;;;;;0.85;0.25;;;9.10;55.40;;;;;;5002542;28;20505;-79
2021/03/19 13:00:35;;;;;;;1.02;0.22;;;9.10;55.10;;;;;;5027090;28;20057;-80
2021/03/19 13:03:30;;;;;;;6.53;2.30;;;8.90;55.70;;;;;;5017425;28;20126;-79
2021/03/19 13:06:09;;;;;;;0.38;0.10;;;9.10;54.60;;;;;;5032170;28;20453;-79
2021/03/19 13:08:53;;;;;;;2.58;0.22;;;9.10;56.00;;;;;;5001652;28;20049;-78
2021/03/19 13:11:34;;;;;;;1.35;0.20;;;9.30;56.40;;;;;;5009540;28;20112;-79
2021/03/19 13:14:30;;;;;;;;;;;;;;;;;;;;;
2021/03/19 13:17:10;;;;;;;1.10;0.40;;;9.70;55.70;;;;;;5030372;28;20061;-78
2021/03/19 13:20:19;;;;;;;0.68;0.30;;;9.70;54.50;;;;;;5013901;28;20046;-79
2021/03/19 13:23:18;;;;;;;1.75;0.20;;;9.60;55.40;;;;;;5014014;28;20054;-79
2021/03/19 13:25:48;;;;;;;2.65;0.17;;;9.60;54.60;;;;;;5031136;28;20041;-78
2021/03/19 13:28:25;;;;;;;0.88;0.20;;;9.40;54.80;;;;;;5018922;28;20037;-79
2021/03/19 13:31:04;;;;;;;1.83;0.20;;;9.30;55.80;;;;;;4999816;28;20493;-79
2021/03/19 13:33:39;;;;;;;1.00;0.20;;;9.20;54.10;;;;;;5018686;28;20754;-78
2021/03/19 13:36:35;;;;;;;1.65;0.30;;;9.20;54.10;;;;;;5020450;28;20069;-78
2021/03/19 13:39:05;;;;;;;1.08;0.20;;;9.10;54.70;;;;;;5022670;28;20045;-78
2021/03/19 13:41:35;;;;;;;0.85;0.20;;;9.10;54.80;;;;;;5014448;28;20393;-78
2021/03/19 13:44:03;;;;;;;2.83;0.28;;;9.10;55.90;;;;;;5014175;28;20042;-79
2021/03/19 13:46:35;;;;;;;21.95;13.00;;;9.10;54.80;;;;;;5019200;28;20475;-77
2021/03/19 13:49:09;;;;;;;0.55;0.10;;;9.00;55.10;;;;;;5026914;28;20048;-77
2021/03/19 13:51:35;;;;;;;0.65;0.13;;;9.00;54.50;;;;;;5027404;28;20121;-77
2021/03/19 13:54:16;;;;;;;0.22;0.10;;;9.00;53.90;;;;;;5014265;28;20135;-78
2021/03/19 13:56:45;;;;;;;1.52;0.20;;;9.00;53.30;;;;;;5026551;28;20053;-78
2021/03/19 13:59:19;;;;;;;0.17;0.10;;;9.20;53.90;;;;;;5017210;28;20045;-75
2021/03/19 14:01:47;;;;;;;1.60;0.10;;;9.30;53.90;;;;;;5027376;28;20055;-76
2021/03/19 14:04:16;;;;;;;0.40;0.00;;;9.40;53.80;;;;;;5023952;28;20474;-79
2021/03/19 14:06:45;;;;;;;0.70;0.10;;;9.50;52.90;;;;;;4992089;28;20133;-77
2021/03/19 14:09:26;;;;;;;0.60;0.05;;;9.40;52.90;;;;;;5017606;28;20046;-78